sensor_id;sensor_type;location;lat;lon;timestamp;P1;durP1;ratioP1;P2;durP2;ratioP2
16403;SDS011;8311;50.158;8.642;2023-07-08T00:01:13;9.57;;;6.80;;
16403;SDS011;8311;50.158;8.642;2023-07-08T00:04:08;12.13;;;7.05;;
16403;SDS011;8311;50.158;8.642;2023-07-08T00:07:01;12.18;;;7.18;;
16403;SDS011;8311;50.158;8.642;2023-07-08T00:09:54;10.02;;;6.07;;
16403;SDS011;8311;50.158;8.642;2023-07-08T00:12:48;12.02;;;7.18;;
16403;SDS011;8311;50.158;8.642;2023-07-08T00:15:42;10.57;;;7.47;;
16403;SDS011;8311;50.158;8.642;2023-07-08T00:18:37;10.88;;;7.03;;
16403;SDS011;8311;50.158;8.642;2023-07-08T00:21:30;9.82;;;7.22;;
16403;SDS011;8311;50.158;8.642;2023-07-08T00:24:23;8.75;;;6.32;;
16403;SDS011;8311;50.158;8.642;2023-07-08T00:27:16;11.00;;;6.72;;
16403;SDS011;8311;50.158;8.642;2023-07-08T00:30:22;10.57;;;7.28;;
16403;SDS011;8311;50.158;8.642;2023-07-08T00:33:17;10.07;;;6.93;;
16403;SDS011;8311;50.158;8.642;2023-07-08T00:36:15;10.48;;;6.97;;
16403;SDS011;8311;50.158;8.642;2023-07-08T00:39:13;10.25;;;6.90;;
16403;SDS011;8311;50.158;8.642;2023-07-08T00:42:10;9.45;;;6.90;;
16403;SDS011;8311;50.158;8.642;2023-07-08T00:45:11;9.98;;;6.25;;
16403;SDS011;8311;50.158;8.642;2023-07-08T00:48:16;9.75;;;6.43;;
16403;SDS011;8311;50.158;8.642;2023-07-08T00:51:16;9.57;;;6.45;;
16403;SDS011;8311;50.158;8.642;2023-07-08T00:54:12;9.35;;;6.25;;
16403;SDS011;8311;50.158;8.642;2023-07-08T00:57:05;10.63;;;6.47;;
16403;SDS011;8311;50.158;8.642;2023-07-08T00:59:59;9.80;;;6.68;;
16403;SDS011;8311;50.158;8.642;2023-07-08T01:02:55;10.60;;;6.90;;
16403;SDS011;8311;50.158;8.642;2023-07-08T01:05:49;9.35;;;6.45;;
16403;SDS011;8311;50.158;8.642;2023-07-08T01:08:44;9.43;;;6.78;;
16403;SDS011;8311;50.158;8.642;2023-07-08T01:11:39;10.48;;;6.93;;
16403;SDS011;8311;50.158;8.642;2023-07-08T01:14:36;9.82;;;7.05;;
16403;SDS011;8311;50.158;8.642;2023-07-08T01:17:34;9.63;;;6.53;;
16403;SDS011;8311;50.158;8.642;2023-07-08T01:20:28;9.65;;;5.95;;
16403;SDS011;8311;50.158;8.642;2023-07-08T01:23:23;10.05;;;6.63;;
16403;SDS011;8311;50.158;8.642;2023-07-08T01:26:16;8.40;;;6.25;;
16403;SDS011;8311;50.158;8.642;2023-07-08T01:29:11;8.18;;;5.72;;
16403;SDS011;8311;50.158;8.642;2023-07-08T01:32:05;9.75;;;6.30;;
16403;SDS011;8311;50.158;8.642;2023-07-08T01:35:00;9.50;;;6.53;;
16403;SDS011;8311;50.158;8.642;2023-07-08T01:37:56;10.45;;;6.82;;
16403;SDS011;8311;50.158;8.642;2023-07-08T01:40:54;8.93;;;5.90;;
16403;SDS011;8311;50.158;8.642;2023-07-08T01:43:50;9.63;;;6.72;;
16403;SDS011;8311;50.158;8.642;2023-07-08T01:46:44;11.20;;;7.10;;
16403;SDS011;8311;50.158;8.642;2023-07-08T01:49:38;10.13;;;6.63;;
16403;SDS011;8311;50.158;8.642;2023-07-08T01:52:32;14.50;;;7.80;;
16403;SDS011;8311;50.158;8.642;2023-07-08T01:55:26;12.40;;;6.85;;
16403;SDS011;8311;50.158;8.642;2023-07-08T01:58:23;10.90;;;7.00;;
16403;SDS011;8311;50.158;8.642;2023-07-08T02:01:16;10.82;;;7.10;;
16403;SDS011;8311;50.158;8.642;2023-07-08T02:04:09;9.10;;;6.07;;
16403;SDS011;8311;50.158;8.642;2023-07-08T02:07:03;9.95;;;6.60;;
16403;SDS011;8311;50.158;8.642;2023-07-08T02:09:55;9.48;;;6.03;;
16403;SDS011;8311;50.158;8.642;2023-07-08T02:12:48;10.57;;;6.68;;
16403;SDS011;8311;50.158;8.642;2023-07-08T02:15:43;9.35;;;6.78;;
16403;SDS011;8311;50.158;8.642;2023-07-08T02:18:37;10.48;;;7.25;;
16403;SDS011;8311;50.158;8.642;2023-07-08T02:21:30;10.05;;;6.95;;
16403;SDS011;8311;50.158;8.642;2023-07-08T02:24:25;10.65;;;6.28;;
16403;SDS011;8311;50.158;8.642;2023-07-08T02:27:18;9.18;;;6.55;;
16403;SDS011;8311;50.158;8.642;2023-07-08T02:30:11;10.57;;;6.80;;
16403;SDS011;8311;50.158;8.642;2023-07-08T02:33:06;12.30;;;7.20;;
16403;SDS011;8311;50.158;8.642;2023-07-08T02:36:00;9.82;;;6.85;;
16403;SDS011;8311;50.158;8.642;2023-07-08T02:38:53;10.52;;;6.60;;
16403;SDS011;8311;50.158;8.642;2023-07-08T02:41:46;11.00;;;6.50;;
16403;SDS011;8311;50.158;8.642;2023-07-08T02:44:40;10.63;;;7.32;;
16403;SDS011;8311;50.158;8.642;2023-07-08T02:47:34;11.15;;;6.55;;
16403;SDS011;8311;50.158;8.642;2023-07-08T02:50:29;10.45;;;7.00;;
16403;SDS011;8311;50.158;8.642;2023-07-08T02:53:22;8.27;;;6.18;;
16403;SDS011;8311;50.158;8.642;2023-07-08T02:56:15;10.30;;;6.68;;
16403;SDS011;8311;50.158;8.642;2023-07-08T02:59:08;10.35;;;7.13;;
16403;SDS011;8311;50.158;8.642;2023-07-08T03:02:00;9.30;;;6.65;;
16403;SDS011;8311;50.158;8.642;2023-07-08T03:04:53;9.52;;;6.95;;
16403;SDS011;8311;50.158;8.642;2023-07-08T03:07:52;10.60;;;6.50;;
16403;SDS011;8311;50.158;8.642;2023-07-08T03:10:45;8.95;;;6.43;;
16403;SDS011;8311;50.158;8.642;2023-07-08T03:13:39;9.07;;;6.20;;
16403;SDS011;8311;50.158;8.642;2023-07-08T03:16:34;10.20;;;6.35;;
16403;SDS011;8311;50.158;8.642;2023-07-08T03:19:27;10.63;;;6.70;;
16403;SDS011;8311;50.158;8.642;2023-07-08T03:22:20;9.23;;;6.60;;
16403;SDS011;8311;50.158;8.642;2023-07-08T03:25:15;9.82;;;6.88;;
16403;SDS011;8311;50.158;8.642;2023-07-08T03:28:11;10.25;;;6.85;;
16403;SDS011;8311;50.158;8.642;2023-07-08T03:31:07;8.77;;;6.78;;
16403;SDS011;8311;50.158;8.642;2023-07-08T03:34:03;10.77;;;5.93;;
16403;SDS011;8311;50.158;8.642;2023-07-08T03:36:57;9.35;;;6.22;;
16403;SDS011;8311;50.158;8.642;2023-07-08T03:39:49;8.90;;;6.38;;
16403;SDS011;8311;50.158;8.642;2023-07-08T03:42:44;9.68;;;6.50;;
16403;SDS011;8311;50.158;8.642;2023-07-08T03:45:37;9.52;;;6.43;;
16403;SDS011;8311;50.158;8.642;2023-07-08T03:48:29;9.02;;;6.50;;
16403;SDS011;8311;50.158;8.642;2023-07-08T03:51:24;10.63;;;6.50;;
16403;SDS011;8311;50.158;8.642;2023-07-08T03:54:20;8.75;;;5.82;;
16403;SDS011;8311;50.158;8.642;2023-07-08T03:57:15;8.95;;;6.22;;
16403;SDS011;8311;50.158;8.642;2023-07-08T04:00:10;7.60;;;6.00;;
16403;SDS011;8311;50.158;8.642;2023-07-08T04:03:05;9.73;;;6.97;;
16403;SDS011;8311;50.158;8.642;2023-07-08T04:05:58;10.20;;;6.50;;
16403;SDS011;8311;50.158;8.642;2023-07-08T04:08:51;10.23;;;6.30;;
16403;SDS011;8311;50.158;8.642;2023-07-08T04:11:45;11.48;;;6.40;;
16403;SDS011;8311;50.158;8.642;2023-07-08T04:14:37;10.98;;;6.53;;
16403;SDS011;8311;50.158;8.642;2023-07-08T04:17:35;10.30;;;6.50;;
16403;SDS011;8311;50.158;8.642;2023-07-08T04:20:31;8.25;;;5.65;;
16403;SDS011;8311;50.158;8.642;2023-07-08T04:23:24;8.27;;;5.68;;
16403;SDS011;8311;50.158;8.642;2023-07-08T04:26:17;8.90;;;6.03;;
16403;SDS011;8311;50.158;8.642;2023-07-08T04:29:11;9.35;;;6.43;;
16403;SDS011;8311;50.158;8.642;2023-07-08T04:32:05;8.32;;;5.68;;
16403;SDS011;8311;50.158;8.642;2023-07-08T04:35:00;10.43;;;6.43;;
16403;SDS011;8311;50.158;8.642;2023-07-08T04:37:54;8.60;;;6.10;;
16403;SDS011;8311;50.158;8.642;2023-07-08T04:40:47;8.80;;;6.22;;
16403;SDS011;8311;50.158;8.642;2023-07-08T04:43:40;10.73;;;6.30;;
16403;SDS011;8311;50.158;8.642;2023-07-08T04:46:35;8.70;;;5.93;;
16403;SDS011;8311;50.158;8.642;2023-07-08T04:49:31;8.27;;;5.65;;
16403;SDS011;8311;50.158;8.642;2023-07-08T04:52:26;8.25;;;5.38;;
16403;SDS011;8311;50.158;8.642;2023-07-08T04:55:21;8.40;;;6.03;;
16403;SDS011;8311;50.158;8.642;2023-07-08T04:58:14;8.27;;;6.40;;
16403;SDS011;8311;50.158;8.642;2023-07-08T05:01:08;9.02;;;6.22;;
16403;SDS011;8311;50.158;8.642;2023-07-08T05:04:02;9.45;;;6.00;;
16403;SDS011;8311;50.158;8.642;2023-07-08T05:06:57;9.02;;;5.95;;
16403;SDS011;8311;50.158;8.642;2023-07-08T05:09:52;7.68;;;5.47;;
16403;SDS011;8311;50.158;8.642;2023-07-08T05:12:45;9.82;;;6.00;;
16403;SDS011;8311;50.158;8.642;2023-07-08T05:15:39;8.48;;;5.57;;
16403;SDS011;8311;50.158;8.642;2023-07-08T05:18:32;8.68;;;5.10;;
16403;SDS011;8311;50.158;8.642;2023-07-08T05:21:28;11.77;;;5.72;;
16403;SDS011;8311;50.158;8.642;2023-07-08T05:24:25;8.77;;;6.22;;
16403;SDS011;8311;50.158;8.642;2023-07-08T05:27:19;9.93;;;5.95;;
16403;SDS011;8311;50.158;8.642;2023-07-08T05:30:14;9.02;;;5.82;;
16403;SDS011;8311;50.158;8.642;2023-07-08T05:33:07;12.35;;;6.10;;
16403;SDS011;8311;50.158;8.642;2023-07-08T05:36:00;10.13;;;5.93;;
16403;SDS011;8311;50.158;8.642;2023-07-08T05:38:54;7.78;;;5.32;;
16403;SDS011;8311;50.158;8.642;2023-07-08T05:41:47;8.50;;;5.75;;
16403;SDS011;8311;50.158;8.642;2023-07-08T05:44:42;8.07;;;5.22;;
16403;SDS011;8311;50.158;8.642;2023-07-08T05:47:36;9.85;;;6.20;;
16403;SDS011;8311;50.158;8.642;2023-07-08T05:50:29;7.57;;;5.35;;
16403;SDS011;8311;50.158;8.642;2023-07-08T05:53:23;11.77;;;6.00;;
16403;SDS011;8311;50.158;8.642;2023-07-08T05:56:16;9.27;;;5.43;;
16403;SDS011;8311;50.158;8.642;2023-07-08T05:59:09;9.50;;;5.93;;
16403;SDS011;8311;50.158;8.642;2023-07-08T06:02:04;9.63;;;6.10;;
16403;SDS011;8311;50.158;8.642;2023-07-08T06:04:58;9.23;;;6.18;;
16403;SDS011;8311;50.158;8.642;2023-07-08T06:07:52;8.18;;;5.57;;
16403;SDS011;8311;50.158;8.642;2023-07-08T06:10:45;8.95;;;5.78;;
16403;SDS011;8311;50.158;8.642;2023-07-08T06:13:38;9.85;;;5.40;;
16403;SDS011;8311;50.158;8.642;2023-07-08T06:16:31;7.30;;;4.95;;
16403;SDS011;8311;50.158;8.642;2023-07-08T06:19:33;9.43;;;5.82;;
16403;SDS011;8311;50.158;8.642;2023-07-08T06:22:30;12.95;;;6.57;;
16403;SDS011;8311;50.158;8.642;2023-07-08T06:25:38;9.27;;;6.15;;
16403;SDS011;8311;50.158;8.642;2023-07-08T06:28:31;7.97;;;4.82;;
16403;SDS011;8311;50.158;8.642;2023-07-08T06:31:24;8.35;;;5.93;;
16403;SDS011;8311;50.158;8.642;2023-07-08T06:34:17;7.47;;;5.43;;
16403;SDS011;8311;50.158;8.642;2023-07-08T06:37:12;7.53;;;5.05;;
16403;SDS011;8311;50.158;8.642;2023-07-08T06:40:05;8.65;;;5.32;;
16403;SDS011;8311;50.158;8.642;2023-07-08T06:43:00;9.13;;;5.47;;
16403;SDS011;8311;50.158;8.642;2023-07-08T06:45:55;8.50;;;4.93;;
16403;SDS011;8311;50.158;8.642;2023-07-08T06:48:49;8.23;;;5.63;;
16403;SDS011;8311;50.158;8.642;2023-07-08T06:51:42;8.82;;;5.10;;
16403;SDS011;8311;50.158;8.642;2023-07-08T06:54:38;8.13;;;5.38;;
16403;SDS011;8311;50.158;8.642;2023-07-08T06:57:31;8.70;;;5.63;;
16403;SDS011;8311;50.158;8.642;2023-07-08T07:00:24;9.32;;;5.45;;
16403;SDS011;8311;50.158;8.642;2023-07-08T07:03:18;7.28;;;5.63;;
16403;SDS011;8311;50.158;8.642;2023-07-08T07:06:10;6.70;;;5.03;;
16403;SDS011;8311;50.158;8.642;2023-07-08T07:09:04;8.65;;;5.65;;
16403;SDS011;8311;50.158;8.642;2023-07-08T07:11:58;10.48;;;5.82;;
16403;SDS011;8311;50.158;8.642;2023-07-08T07:14:55;7.25;;;5.15;;
16403;SDS011;8311;50.158;8.642;2023-07-08T07:17:49;7.63;;;5.05;;
16403;SDS011;8311;50.158;8.642;2023-07-08T07:20:47;8.73;;;5.00;;
16403;SDS011;8311;50.158;8.642;2023-07-08T07:23:42;7.78;;;4.78;;
16403;SDS011;8311;50.158;8.642;2023-07-08T07:26:35;8.05;;;4.80;;
16403;SDS011;8311;50.158;8.642;2023-07-08T07:29:37;9.18;;;5.32;;
16403;SDS011;8311;50.158;8.642;2023-07-08T07:32:33;7.18;;;4.93;;
16403;SDS011;8311;50.158;8.642;2023-07-08T07:35:27;7.88;;;4.97;;
16403;SDS011;8311;50.158;8.642;2023-07-08T07:38:21;7.60;;;4.80;;
16403;SDS011;8311;50.158;8.642;2023-07-08T07:41:16;14.23;;;5.07;;
16403;SDS011;8311;50.158;8.642;2023-07-08T07:44:09;7.28;;;5.05;;
16403;SDS011;8311;50.158;8.642;2023-07-08T07:47:03;8.50;;;5.38;;
16403;SDS011;8311;50.158;8.642;2023-07-08T07:49:58;7.57;;;4.93;;
16403;SDS011;8311;50.158;8.642;2023-07-08T07:52:51;7.72;;;4.60;;
16403;SDS011;8311;50.158;8.642;2023-07-08T07:55:45;8.30;;;5.32;;
16403;SDS011;8311;50.158;8.642;2023-07-08T07:58:38;7.10;;;4.25;;
16403;SDS011;8311;50.158;8.642;2023-07-08T08:01:30;8.45;;;4.78;;
16403;SDS011;8311;50.158;8.642;2023-07-08T08:04:25;7.43;;;4.63;;
16403;SDS011;8311;50.158;8.642;2023-07-08T08:07:19;10.70;;;4.43;;
16403;SDS011;8311;50.158;8.642;2023-07-08T08:10:12;10.40;;;5.18;;
16403;SDS011;8311;50.158;8.642;2023-07-08T08:13:05;11.10;;;4.85;;
16403;SDS011;8311;50.158;8.642;2023-07-08T08:16:00;8.48;;;4.32;;
16403;SDS011;8311;50.158;8.642;2023-07-08T08:18:54;11.57;;;4.93;;
16403;SDS011;8311;50.158;8.642;2023-07-08T08:21:48;7.30;;;4.65;;
16403;SDS011;8311;50.158;8.642;2023-07-08T08:24:42;8.95;;;5.00;;
16403;SDS011;8311;50.158;8.642;2023-07-08T08:27:37;9.93;;;4.53;;
16403;SDS011;8311;50.158;8.642;2023-07-08T08:30:31;9.15;;;4.53;;
16403;SDS011;8311;50.158;8.642;2023-07-08T08:33:25;8.25;;;4.63;;
16403;SDS011;8311;50.158;8.642;2023-07-08T08:36:19;9.73;;;4.85;;
16403;SDS011;8311;50.158;8.642;2023-07-08T08:39:14;9.00;;;5.00;;
16403;SDS011;8311;50.158;8.642;2023-07-08T08:42:11;10.13;;;4.70;;
16403;SDS011;8311;50.158;8.642;2023-07-08T08:45:13;6.97;;;4.75;;
16403;SDS011;8311;50.158;8.642;2023-07-08T08:48:11;10.18;;;5.10;;
16403;SDS011;8311;50.158;8.642;2023-07-08T08:51:09;8.60;;;4.97;;
16403;SDS011;8311;50.158;8.642;2023-07-08T08:54:06;7.05;;;4.65;;
16403;SDS011;8311;50.158;8.642;2023-07-08T08:57:02;6.32;;;4.60;;
16403;SDS011;8311;50.158;8.642;2023-07-08T09:00:07;9.23;;;4.80;;
16403;SDS011;8311;50.158;8.642;2023-07-08T09:03:04;9.32;;;5.32;;
16403;SDS011;8311;50.158;8.642;2023-07-08T09:06:07;8.43;;;5.50;;
16403;SDS011;8311;50.158;8.642;2023-07-08T09:09:05;8.65;;;5.65;;
16403;SDS011;8311;50.158;8.642;2023-07-08T09:12:11;7.70;;;4.70;;
16403;SDS011;8311;50.158;8.642;2023-07-08T09:15:11;7.95;;;5.00;;
16403;SDS011;8311;50.158;8.642;2023-07-08T09:18:10;9.05;;;5.53;;
16403;SDS011;8311;50.158;8.642;2023-07-08T09:21:13;10.70;;;6.03;;
16403;SDS011;8311;50.158;8.642;2023-07-08T09:24:15;9.38;;;5.25;;
16403;SDS011;8311;50.158;8.642;2023-07-08T09:27:12;7.90;;;5.40;;
16403;SDS011;8311;50.158;8.642;2023-07-08T09:30:08;9.63;;;5.00;;
16403;SDS011;8311;50.158;8.642;2023-07-08T09:33:06;8.80;;;5.47;;
16403;SDS011;8311;50.158;8.642;2023-07-08T09:36:01;8.75;;;5.18;;
16403;SDS011;8311;50.158;8.642;2023-07-08T09:38:55;8.45;;;5.80;;
16403;SDS011;8311;50.158;8.642;2023-07-08T09:41:48;8.90;;;5.38;;
16403;SDS011;8311;50.158;8.642;2023-07-08T09:44:45;9.18;;;5.07;;
16403;SDS011;8311;50.158;8.642;2023-07-08T09:47:39;8.00;;;5.22;;
16403;SDS011;8311;50.158;8.642;2023-07-08T09:50:33;7.78;;;5.93;;
16403;SDS011;8311;50.158;8.642;2023-07-08T09:53:29;10.32;;;5.95;;
16403;SDS011;8311;50.158;8.642;2023-07-08T09:56:22;8.90;;;5.28;;
16403;SDS011;8311;50.158;8.642;2023-07-08T09:59:15;9.55;;;5.78;;
16403;SDS011;8311;50.158;8.642;2023-07-08T10:02:24;8.23;;;5.57;;
16403;SDS011;8311;50.158;8.642;2023-07-08T10:05:22;8.25;;;5.22;;
16403;SDS011;8311;50.158;8.642;2023-07-08T10:08:18;8.20;;;6.20;;
16403;SDS011;8311;50.158;8.642;2023-07-08T10:11:16;8.68;;;5.93;;
16403;SDS011;8311;50.158;8.642;2023-07-08T10:14:22;7.72;;;5.57;;
16403;SDS011;8311;50.158;8.642;2023-07-08T10:17:20;9.00;;;5.68;;
16403;SDS011;8311;50.158;8.642;2023-07-08T10:20:15;10.48;;;5.75;;
16403;SDS011;8311;50.158;8.642;2023-07-08T10:23:13;8.77;;;6.07;;
16403;SDS011;8311;50.158;8.642;2023-07-08T10:26:17;10.82;;;5.75;;
16403;SDS011;8311;50.158;8.642;2023-07-08T10:29:18;9.13;;;5.60;;
16403;SDS011;8311;50.158;8.642;2023-07-08T10:32:22;12.02;;;6.45;;
16403;SDS011;8311;50.158;8.642;2023-07-08T10:35:24;8.48;;;5.80;;
16403;SDS011;8311;50.158;8.642;2023-07-08T10:38:26;11.05;;;6.25;;
16403;SDS011;8311;50.158;8.642;2023-07-08T10:41:30;7.20;;;5.25;;
16403;SDS011;8311;50.158;8.642;2023-07-08T10:44:33;9.10;;;6.15;;
16403;SDS011;8311;50.158;8.642;2023-07-08T10:47:36;8.80;;;5.50;;
16403;SDS011;8311;50.158;8.642;2023-07-08T10:50:42;8.10;;;5.40;;
16403;SDS011;8311;50.158;8.642;2023-07-08T10:53:52;9.27;;;5.53;;
16403;SDS011;8311;50.158;8.642;2023-07-08T10:57:05;7.97;;;5.20;;
16403;SDS011;8311;50.158;8.642;2023-07-08T11:00:12;8.93;;;5.38;;
16403;SDS011;8311;50.158;8.642;2023-07-08T11:03:25;7.70;;;5.32;;
16403;SDS011;8311;50.158;8.642;2023-07-08T11:06:50;8.55;;;5.60;;
16403;SDS011;8311;50.158;8.642;2023-07-08T11:09:48;7.97;;;5.00;;
16403;SDS011;8311;50.158;8.642;2023-07-08T11:12:46;8.10;;;5.28;;
16403;SDS011;8311;50.158;8.642;2023-07-08T11:15:43;7.47;;;5.13;;
16403;SDS011;8311;50.158;8.642;2023-07-08T11:18:54;7.88;;;5.35;;
16403;SDS011;8311;50.158;8.642;2023-07-08T11:21:53;14.10;;;5.30;;
16403;SDS011;8311;50.158;8.642;2023-07-08T11:24:51;8.07;;;5.53;;
16403;SDS011;8311;50.158;8.642;2023-07-08T11:27:47;11.02;;;5.88;;
16403;SDS011;8311;50.158;8.642;2023-07-08T11:30:42;7.18;;;4.93;;
16403;SDS011;8311;50.158;8.642;2023-07-08T11:33:39;8.90;;;5.57;;
16403;SDS011;8311;50.158;8.642;2023-07-08T11:36:35;7.25;;;4.93;;
16403;SDS011;8311;50.158;8.642;2023-07-08T11:39:33;7.00;;;4.70;;
16403;SDS011;8311;50.158;8.642;2023-07-08T11:42:35;7.47;;;5.10;;
16403;SDS011;8311;50.158;8.642;2023-07-08T11:45:32;7.50;;;5.28;;
16403;SDS011;8311;50.158;8.642;2023-07-08T11:48:30;7.18;;;4.60;;
16403;SDS011;8311;50.158;8.642;2023-07-08T11:51:28;8.35;;;4.60;;
16403;SDS011;8311;50.158;8.642;2023-07-08T11:54:28;6.38;;;4.65;;
16403;SDS011;8311;50.158;8.642;2023-07-08T11:57:24;7.93;;;4.85;;
16403;SDS011;8311;50.158;8.642;2023-07-08T12:00:22;6.35;;;4.32;;
16403;SDS011;8311;50.158;8.642;2023-07-08T12:03:19;7.35;;;4.70;;
16403;SDS011;8311;50.158;8.642;2023-07-08T12:09:37;7.78;;;4.90;;
16403;SDS011;8311;50.158;8.642;2023-07-08T12:12:32;7.30;;;5.05;;
16403;SDS011;8311;50.158;8.642;2023-07-08T12:15:29;7.43;;;4.57;;
16403;SDS011;8311;50.158;8.642;2023-07-08T12:18:25;7.28;;;5.20;;
16403;SDS011;8311;50.158;8.642;2023-07-08T12:21:22;7.55;;;4.60;;
16403;SDS011;8311;50.158;8.642;2023-07-08T12:24:18;7.15;;;4.57;;
16403;SDS011;8311;50.158;8.642;2023-07-08T12:27:18;7.32;;;4.57;;
16403;SDS011;8311;50.158;8.642;2023-07-08T12:30:14;8.15;;;4.88;;
16403;SDS011;8311;50.158;8.642;2023-07-08T12:33:09;7.57;;;4.93;;
16403;SDS011;8311;50.158;8.642;2023-07-08T12:36:09;6.88;;;4.63;;
16403;SDS011;8311;50.158;8.642;2023-07-08T12:39:05;6.68;;;4.70;;
16403;SDS011;8311;50.158;8.642;2023-07-08T12:41:58;8.98;;;5.38;;
16403;SDS011;8311;50.158;8.642;2023-07-08T12:44:53;7.15;;;4.80;;
16403;SDS011;8311;50.158;8.642;2023-07-08T12:47:47;8.20;;;5.05;;
16403;SDS011;8311;50.158;8.642;2023-07-08T12:50:41;6.50;;;4.45;;
16403;SDS011;8311;50.158;8.642;2023-07-08T12:53:34;6.72;;;4.35;;
16403;SDS011;8311;50.158;8.642;2023-07-08T12:56:28;6.53;;;4.50;;
16403;SDS011;8311;50.158;8.642;2023-07-08T12:59:21;6.45;;;4.53;;
16403;SDS011;8311;50.158;8.642;2023-07-08T13:02:18;6.50;;;4.60;;
16403;SDS011;8311;50.158;8.642;2023-07-08T13:05:14;6.97;;;4.63;;
16403;SDS011;8311;50.158;8.642;2023-07-08T13:08:07;7.13;;;4.45;;
16403;SDS011;8311;50.158;8.642;2023-07-08T13:11:04;6.75;;;4.60;;
16403;SDS011;8311;50.158;8.642;2023-07-08T13:14:00;6.80;;;4.35;;
16403;SDS011;8311;50.158;8.642;2023-07-08T13:16:58;6.70;;;4.90;;
16403;SDS011;8311;50.158;8.642;2023-07-08T13:19:52;6.65;;;4.45;;
16403;SDS011;8311;50.158;8.642;2023-07-08T13:22:48;6.00;;;3.75;;
16403;SDS011;8311;50.158;8.642;2023-07-08T13:25:46;5.50;;;3.67;;
16403;SDS011;8311;50.158;8.642;2023-07-08T13:28:42;6.78;;;4.25;;
16403;SDS011;8311;50.158;8.642;2023-07-08T13:31:37;5.55;;;3.85;;
16403;SDS011;8311;50.158;8.642;2023-07-08T13:34:32;6.32;;;4.28;;
16403;SDS011;8311;50.158;8.642;2023-07-08T13:37:27;6.00;;;4.00;;
16403;SDS011;8311;50.158;8.642;2023-07-08T13:40:26;6.82;;;4.35;;
16403;SDS011;8311;50.158;8.642;2023-07-08T13:43:22;6.03;;;4.03;;
16403;SDS011;8311;50.158;8.642;2023-07-08T13:46:25;8.10;;;4.35;;
16403;SDS011;8311;50.158;8.642;2023-07-08T13:49:23;5.70;;;4.10;;
16403;SDS011;8311;50.158;8.642;2023-07-08T13:52:22;6.00;;;3.97;;
16403;SDS011;8311;50.158;8.642;2023-07-08T13:55:17;7.70;;;4.63;;
16403;SDS011;8311;50.158;8.642;2023-07-08T13:58:15;6.75;;;4.45;;
16403;SDS011;8311;50.158;8.642;2023-07-08T14:01:09;5.28;;;3.75;;
16403;SDS011;8311;50.158;8.642;2023-07-08T14:04:12;6.00;;;4.05;;
16403;SDS011;8311;50.158;8.642;2023-07-08T14:07:09;6.10;;;4.25;;
16403;SDS011;8311;50.158;8.642;2023-07-08T14:10:08;6.15;;;4.38;;
16403;SDS011;8311;50.158;8.642;2023-07-08T14:13:04;5.82;;;3.75;;
16403;SDS011;8311;50.158;8.642;2023-07-08T14:15:58;7.03;;;4.45;;
16403;SDS011;8311;50.158;8.642;2023-07-08T14:18:51;5.65;;;3.90;;
16403;SDS011;8311;50.158;8.642;2023-07-08T14:21:45;5.97;;;4.05;;
16403;SDS011;8311;50.158;8.642;2023-07-08T14:24:39;5.53;;;3.63;;
16403;SDS011;8311;50.158;8.642;2023-07-08T14:27:32;6.57;;;3.88;;
16403;SDS011;8311;50.158;8.642;2023-07-08T14:30:27;5.35;;;3.75;;
16403;SDS011;8311;50.158;8.642;2023-07-08T14:33:20;5.50;;;3.97;;
16403;SDS011;8311;50.158;8.642;2023-07-08T14:36:14;5.32;;;3.83;;
16403;SDS011;8311;50.158;8.642;2023-07-08T14:39:13;6.22;;;3.60;;
16403;SDS011;8311;50.158;8.642;2023-07-08T14:42:08;5.28;;;3.67;;
16403;SDS011;8311;50.158;8.642;2023-07-08T14:45:06;5.95;;;3.78;;
16403;SDS011;8311;50.158;8.642;2023-07-08T14:48:01;5.85;;;3.78;;
16403;SDS011;8311;50.158;8.642;2023-07-08T14:50:58;6.32;;;3.60;;
16403;SDS011;8311;50.158;8.642;2023-07-08T14:53:52;5.20;;;3.35;;
16403;SDS011;8311;50.158;8.642;2023-07-08T14:56:47;5.63;;;3.67;;
16403;SDS011;8311;50.158;8.642;2023-07-08T14:59:41;6.18;;;3.60;;
16403;SDS011;8311;50.158;8.642;2023-07-08T15:02:34;5.22;;;3.55;;
16403;SDS011;8311;50.158;8.642;2023-07-08T15:05:33;6.10;;;3.80;;
16403;SDS011;8311;50.158;8.642;2023-07-08T15:08:27;5.30;;;3.75;;
16403;SDS011;8311;50.158;8.642;2023-07-08T15:11:20;5.63;;;4.18;;
16403;SDS011;8311;50.158;8.642;2023-07-08T15:14:16;5.90;;;3.72;;
16403;SDS011;8311;50.158;8.642;2023-07-08T15:17:13;5.00;;;3.55;;
16403;SDS011;8311;50.158;8.642;2023-07-08T15:20:12;6.03;;;3.65;;
16403;SDS011;8311;50.158;8.642;2023-07-08T15:23:09;4.97;;;3.28;;
16403;SDS011;8311;50.158;8.642;2023-07-08T15:26:03;5.38;;;3.50;;
16403;SDS011;8311;50.158;8.642;2023-07-08T15:28:57;4.90;;;3.28;;
16403;SDS011;8311;50.158;8.642;2023-07-08T15:31:50;5.57;;;3.78;;
16403;SDS011;8311;50.158;8.642;2023-07-08T15:34:44;5.18;;;3.50;;
16403;SDS011;8311;50.158;8.642;2023-07-08T15:37:37;6.50;;;3.92;;
16403;SDS011;8311;50.158;8.642;2023-07-08T15:40:33;5.25;;;3.55;;
16403;SDS011;8311;50.158;8.642;2023-07-08T15:43:27;5.97;;;3.72;;
16403;SDS011;8311;50.158;8.642;2023-07-08T15:46:21;5.18;;;3.20;;
16403;SDS011;8311;50.158;8.642;2023-07-08T15:49:20;5.80;;;3.30;;
16403;SDS011;8311;50.158;8.642;2023-07-08T15:52:14;5.30;;;3.42;;
16403;SDS011;8311;50.158;8.642;2023-07-08T15:55:08;6.13;;;3.38;;
16403;SDS011;8311;50.158;8.642;2023-07-08T15:58:03;5.25;;;3.67;;
16403;SDS011;8311;50.158;8.642;2023-07-08T16:00:58;5.13;;;3.20;;
16403;SDS011;8311;50.158;8.642;2023-07-08T16:03:53;5.40;;;3.60;;
16403;SDS011;8311;50.158;8.642;2023-07-08T16:06:46;5.05;;;3.47;;
16403;SDS011;8311;50.158;8.642;2023-07-08T16:09:40;4.88;;;3.15;;
16403;SDS011;8311;50.158;8.642;2023-07-08T16:12:34;5.10;;;3.20;;
16403;SDS011;8311;50.158;8.642;2023-07-08T16:15:29;4.65;;;2.92;;
16403;SDS011;8311;50.158;8.642;2023-07-08T16:18:24;5.57;;;3.50;;
16403;SDS011;8311;50.158;8.642;2023-07-08T16:21:17;6.13;;;3.22;;
16403;SDS011;8311;50.158;8.642;2023-07-08T16:24:10;4.90;;;2.90;;
16403;SDS011;8311;50.158;8.642;2023-07-08T16:27:04;5.80;;;3.72;;
16403;SDS011;8311;50.158;8.642;2023-07-08T16:29:58;5.72;;;3.58;;
16403;SDS011;8311;50.158;8.642;2023-07-08T16:32:53;5.22;;;3.35;;
16403;SDS011;8311;50.158;8.642;2023-07-08T16:35:46;4.38;;;3.13;;
16403;SDS011;8311;50.158;8.642;2023-07-08T16:38:39;5.10;;;3.00;;
16403;SDS011;8311;50.158;8.642;2023-07-08T16:41:34;5.38;;;3.38;;
16403;SDS011;8311;50.158;8.642;2023-07-08T16:44:28;4.72;;;2.90;;
16403;SDS011;8311;50.158;8.642;2023-07-08T16:47:21;5.03;;;3.30;;
16403;SDS011;8311;50.158;8.642;2023-07-08T16:50:17;4.90;;;3.05;;
16403;SDS011;8311;50.158;8.642;2023-07-08T16:53:10;4.93;;;3.03;;
16403;SDS011;8311;50.158;8.642;2023-07-08T16:56:04;5.03;;;3.15;;
16403;SDS011;8311;50.158;8.642;2023-07-08T16:58:57;4.65;;;3.28;;
16403;SDS011;8311;50.158;8.642;2023-07-08T17:01:52;4.85;;;3.30;;
16403;SDS011;8311;50.158;8.642;2023-07-08T17:04:46;5.10;;;3.45;;
16403;SDS011;8311;50.158;8.642;2023-07-08T17:07:44;4.78;;;3.13;;
16403;SDS011;8311;50.158;8.642;2023-07-08T17:10:38;5.10;;;3.17;;
16403;SDS011;8311;50.158;8.642;2023-07-08T17:13:31;4.75;;;3.10;;
16403;SDS011;8311;50.158;8.642;2023-07-08T17:16:25;4.95;;;3.08;;
16403;SDS011;8311;50.158;8.642;2023-07-08T17:19:21;4.82;;;3.00;;
16403;SDS011;8311;50.158;8.642;2023-07-08T17:22:14;5.10;;;3.38;;
16403;SDS011;8311;50.158;8.642;2023-07-08T17:25:11;4.88;;;3.30;;
16403;SDS011;8311;50.158;8.642;2023-07-08T17:28:06;5.13;;;3.38;;
16403;SDS011;8311;50.158;8.642;2023-07-08T17:31:00;5.43;;;3.45;;
16403;SDS011;8311;50.158;8.642;2023-07-08T17:33:55;5.32;;;3.58;;
16403;SDS011;8311;50.158;8.642;2023-07-08T17:36:50;5.95;;;3.38;;
16403;SDS011;8311;50.158;8.642;2023-07-08T17:39:43;5.25;;;3.45;;
16403;SDS011;8311;50.158;8.642;2023-07-08T17:42:38;4.32;;;2.95;;
16403;SDS011;8311;50.158;8.642;2023-07-08T17:45:33;5.05;;;3.20;;
16403;SDS011;8311;50.158;8.642;2023-07-08T17:48:33;4.50;;;2.88;;
16403;SDS011;8311;50.158;8.642;2023-07-08T17:51:26;5.35;;;3.35;;
16403;SDS011;8311;50.158;8.642;2023-07-08T17:54:21;5.22;;;3.25;;